Time;durP1;ratioP1;P1;durP2;ratioP2;P2;SDS_P1;SDS_P2;PMS_P1;PMS_P2;Temp;Humidity;BMP_temperature;BMP_pressure;BME280_temperature;BME280_humidity;BME280_pressure;Samples;Min_cycle;Max_cycle;Signal;HPM_P1;HPM_P2
2023/09/03 00:03:17;;;;;;;3.78;2.60;;;;;;;21.96;53.40;100617.28;41594790;28;20038;-73
2023/09/03 00:23:17;;;;;;;4.20;2.50;;;;;;;21.82;53.96;100599.88;41564965;28;20075;-75
2023/09/03 00:43:17;;;;;;;5.40;2.70;;;;;;;21.87;54.57;100633.81;41606322;28;20044;-76
2023/09/03 01:03:20;;;;;;;5.93;2.90;;;;;;;21.67;54.55;100612.44;41634354;28;20049;-75
2023/09/03 01:24:02;;;;;;;3.22;2.40;;;;;;;22.59;54.69;100751.41;41609426;28;20456;-76
2023/09/03 01:44:09;;;;;;;5.15;2.92;;;;;;;22.56;54.24;100746.38;41628971;28;20072;-77
2023/09/03 02:04:09;;;;;;;6.10;2.80;;;;;;;22.35;55.15;100744.41;41621368;28;20044;-76
2023/09/03 02:24:10;;;;;;;5.22;3.00;;;;;;;22.31;55.11;100753.50;41617397;28;20045;-78
2023/09/03 02:44:11;;;;;;;4.90;2.67;;;;;;;21.98;54.93;100723.47;41618389;28;20045;-75
2023/09/03 06:13:38;;;;;;;2.17;1.30;;;;;;;23.44;50.27;100839.03;41628254;28;20550;-81
2023/09/03 06:33:39;;;;;;;2.63;1.70;;;;;;;23.36;50.76;100841.44;41603825;28;20099;-81
2023/09/03 06:53:41;;;;;;;5.07;1.60;;;;;;;23.33;51.19;100872.44;41658330;28;20068;-79
2023/09/03 07:13:41;;;;;;;2.22;1.60;;;;;;;23.43;50.09;100797.72;41771120;28;21908;-79
2023/09/03 07:33:44;;;;;;;5.20;2.55;;;;;;;23.43;50.10;100763.34;41782575;28;20041;-72
2023/09/03 07:53:48;;;;;;;5.45;1.80;;;;;;;23.63;50.18;100811.94;41756224;28;20549;-75
2023/09/03 08:13:57;;;;;;;2.95;1.60;;;;;;;23.80;49.71;100835.22;41796156;28;20574;-77
2023/09/03 08:33:58;;;;;;;1.02;0.77;;;;;;;23.06;50.13;100837.59;41799937;28;20068;-81
2023/09/03 08:54:00;;;;;;;2.00;0.90;;;;;;;23.29;50.74;100856.94;41787023;28;20411;-82
2023/09/03 09:14:04;;;;;;;3.58;0.82;;;;;;;22.82;50.11;100777.81;41826142;28;20132;-81
2023/09/03 09:34:14;;;;;;;5.75;1.00;;;;;;;23.55;51.37;100862.81;41817088;28;20613;-78
2023/09/03 09:54:14;;;;;;;1.40;1.30;;;;;;;23.25;51.89;100837.00;41812594;28;20045;-80
2023/09/03 10:14:16;;;;;;;1.00;0.80;;;;;;;22.70;51.71;100808.66;41808253;28;20665;-74
2023/09/03 10:34:26;;;;;;;2.97;1.10;;;;;;;23.07;51.46;100828.69;41775037;28;20179;-79
2023/09/03 10:54:27;;;;;;;2.72;1.35;;;;;;;22.88;52.50;100764.13;41764288;28;20049;-78
2023/09/03 11:14:30;;;;;;;1.77;1.20;;;;;;;23.29;53.88;100823.44;41814417;28;20033;-79
2023/09/03 11:34:31;;;;;;;2.65;1.90;;;;;;;23.64;54.12;100850.63;41810000;28;20495;-83
2023/09/03 11:54:31;;;;;;;3.00;1.50;;;;;;;24.46;52.65;100828.06;41770984;28;20068;-80
2023/09/03 12:14:32;;;;;;;3.88;1.55;;;;;;;23.78;51.62;100693.53;41781231;28;20594;-80
2023/09/03 12:34:36;;;;;;;2.65;1.90;;;;;;;24.09;53.61;100813.47;41772797;28;20097;-81
2023/09/03 12:54:38;;;;;;;1.92;1.80;;;;;;;23.30;54.61;100777.56;41811006;28;20060;-77
2023/09/03 13:14:39;;;;;;;2.95;1.80;;;;;;;23.38;51.90;100779.59;41814216;28;20041;-82
2023/09/03 13:34:43;;;;;;;2.40;2.20;;;;;;;23.26;54.13;100770.00;41826316;28;20051;-85
2023/09/03 13:54:48;;;;;;;3.30;2.60;;;;;;;24.52;52.58;100755.25;41807749;28;20068;-86
2023/09/03 14:14:48;;;;;;;2.80;2.60;;;;;;;25.07;49.27;100757.56;41780135;28;20052;-80
2023/09/03 14:34:49;;;;;;;4.25;2.90;;;;;;;25.18;47.66;100730.97;41773793;28;20990;-84
2023/09/03 14:54:50;;;;;;;3.17;2.78;;;;;;;25.33;47.72;100706.69;41806340;28;20057;-79
2023/09/03 15:14:51;;;;;;;3.53;2.47;;;;;;;25.40;44.34;100706.06;41804420;28;20045;-79
2023/09/03 15:34:51;;;;;;;3.25;2.05;;;;;;;25.50;41.93;100723.75;41789377;28;20059;-78
2023/09/03 15:54:52;;;;;;;3.03;2.25;;;;;;;25.80;41.46;100729.91;41766439;28;20415;-81
2023/09/03 16:14:53;;;;;;;2.78;2.10;;;;;;;24.67;40.84;100714.25;41763275;28;20080;-80
2023/09/03 16:34:57;;;;;;;3.58;1.88;;;;;;;24.24;41.34;100726.69;41748008;28;20100;-80
2023/09/03 16:54:59;;;;;;;2.00;1.80;;;;;;;23.93;42.50;100752.25;41751014;28;20045;-77
2023/09/03 17:15:00;;;;;;;2.00;1.80;;;;;;;23.66;43.13;100772.06;41738783;28;20387;-72
2023/09/03 17:35:00;;;;;;;1.80;1.70;;;;;;;23.45;43.97;100778.13;41797090;28;20048;-82
2023/09/03 17:55:01;;;;;;;3.28;1.90;;;;;;;23.37;43.99;100808.78;41800283;28;20441;-77
2023/09/03 18:15:02;;;;;;;2.58;2.25;;;;;;;24.21;42.97;100827.50;41758167;28;20060;-87
2023/09/03 18:35:05;;;;;;;2.30;2.00;;;;;;;24.42;43.62;100861.91;41807504;28;20065;-85
2023/09/03 18:55:06;;;;;;;2.30;2.08;;;;;;;24.00;44.49;100898.91;41760643;28;20045;-76
2023/09/03 19:15:08;;;;;;;3.63;2.17;;;;;;;23.91;44.89;100907.53;41771175;28;23462;-74
2023/09/03 19:35:09;;;;;;;4.68;2.15;;;;;;;24.09;44.68;100921.13;41762580;28;20118;-75
2023/09/03 19:55:11;;;;;;;3.58;2.55;;;;;;;23.66;46.18;100947.38;41744165;28;20060;-76
2023/09/03 20:15:12;;;;;;;2.58;2.33;;;;;;;24.01;45.50;100963.22;41732787;28;20480;-76
2023/09/03 20:35:14;;;;;;;3.45;2.40;;;;;;;23.02;47.72;100927.63;41730570;28;20037;-75
2023/09/03 20:55:14;;;;;;;3.35;2.47;;;;;;;23.24;47.52;100963.00;41747196;28;20057;-76
2023/09/03 21:15:15;;;;;;;2.97;2.40;;;;;;;23.88;45.53;100971.28;41777551;28;20045;-75
2023/09/03 21:35:15;;;;;;;3.15;2.85;;;;;;;22.97;47.25;100944.78;41756154;28;20056;-75
2023/09/03 21:55:15;;;;;;;3.83;2.50;;;;;;;23.01;46.56;100957.66;41787988;28;20187;-75
2023/09/03 22:15:16;;;;;;;3.30;2.45;;;;;;;22.52;46.38;100937.56;41779360;28;20530;-76
2023/09/03 22:35:17;;;;;;;4.43;2.50;;;;;;;22.45;46.47;100925.78;41782051;28;20068;-77
2023/09/03 22:55:17;;;;;;;2.85;2.55;;;;;;;22.26;46.83;100928.94;41805729;28;20045;-76
2023/09/03 23:15:18;;;;;;;3.58;2.78;;;;;;;22.50;46.30;100961.44;41786339;28;21495;-76
2023/09/03 23:35:19;;;;;;;2.60;2.40;;;;;;;22.36;46.24;100943.13;41768341;28;20120;-77
2023/09/03 23:55:19;;;;;;;2.97;2.63;;;;;;;22.46;46.24;100959.13;41785106;28;20053;-77
